Aviation Forecast PDF Print E-mail

 
met_logo

NATIONAL METEOROLOGICAL SERVICE OF BELIZE

Area Forecast for the Country of Belize


For the period from:

1200  28  JANUARY  2015

to

2400  28  JANUARY  2015

All Heights in the forecast are above sea level. PS= Positive, MS= Minus. All times are UTC.


A.

SPECIAL FEATURES of the METEOROLOGICAL SITUATION

  COOL AND MOSTLY DRY WEATHER CONDITIONS PERSIST OVER THE FORECAST AREA.

B.

HEIGHT (Ft)

WIND (True Degrees and Knots)

TEMPERATURE (°C)

Surface

33010 BECMG 04010

PS27-28

2,000

02010

PS16

5,000

02010

PS12

10,000

03010

PS08


C.

CLOUDS (Amount, Type, Ceiling and Top(optional))

 SCT/BKN CU BASES 1,800-2,500FT.; TOPS 6,000FT.

 SCT/BKN SC  BASES LYRD BETWEEN 3,500-5000FT.

 

 

 


D.

SURFACE VISIBILITY:   REDUCED TO 3-5KM IN SHOWERS / RAIN.;OTHERWISE GREATER THAN 10KM.


E.

WEATHER:  VARIABLY CLOUDY AND COOL WITH CHANCE OF ISOLATED SHOWERS OR LIGHT RAIN IN THE SOUTH AND MOSTLY DRY WEATHER ELSEWHERE. 


Remarks, Warnings, Turbulence

Barometric Changes

LOW CLOUDS COVERING HILLS

DIURNAL (FALLING)

G.

OUTLOOK:

TO 1200Z 29 JAN-

CLOUDY AT TIMES WITH FEW SHOWERS OR LIGHT RAIN MAINLY IN THE SOUTH.  

H.

TAF  MZBZ

280900Z 2812/2912 33007KT 9999 FEW022 SCT045 BECMG 2820/2822 04008KT=

I.

Meteorological Office:

BELIZE 

Issued at:

1200 28 JANUARY 2015

Forecaster:

R. Gordon